createdAt,value
2019-02-25T00:02:30.895Z,54.33
2019-02-25T00:05:01.367Z,54.96
2019-02-25T00:07:31.867Z,54.78
2019-02-25T00:10:02.345Z,54.47
2019-02-25T00:12:32.847Z,54.28
2019-02-25T00:15:03.469Z,54.43
2019-02-25T00:17:34.138Z,55.50
2019-02-25T00:20:04.878Z,55.70
2019-02-25T00:22:35.338Z,55.96
2019-02-25T00:25:06.103Z,55.62
2019-02-25T00:27:36.574Z,55.78
2019-02-25T00:30:08.053Z,55.85
2019-02-25T00:32:38.511Z,55.77
2019-02-25T00:35:09.229Z,55.66
2019-02-25T00:37:39.694Z,55.70
2019-02-25T00:40:10.389Z,55.94
2019-02-25T00:42:40.937Z,55.49
2019-02-25T00:45:11.690Z,56.52
2019-02-25T00:47:42.158Z,57.04
2019-02-25T00:50:13.568Z,57.17
2019-02-25T00:52:44.082Z,57.65
2019-02-25T00:55:14.974Z,57.85
2019-02-25T00:57:45.604Z,57.57
2019-02-25T01:00:16.962Z,58.05
2019-02-25T01:02:47.461Z,58.63
2019-02-25T01:05:18.133Z,58.02
2019-02-25T01:07:48.750Z,57.35
2019-02-25T01:10:19.434Z,57.82
2019-02-25T01:12:50.040Z,57.27
2019-02-25T01:15:20.502Z,57.01
2019-02-25T01:17:51.097Z,57.00
2019-02-25T01:20:21.688Z,56.60
2019-02-25T01:22:52.244Z,56.05
2019-02-25T01:25:22.750Z,56.21
2019-02-25T01:27:53.268Z,56.46
2019-02-25T01:30:24.030Z,55.81
2019-02-25T01:32:54.490Z,55.51
2019-02-25T01:35:25.199Z,55.61
2019-02-25T01:37:55.698Z,55.36
2019-02-25T01:40:26.257Z,55.17
2019-02-25T01:42:56.744Z,55.22
2019-02-25T01:45:27.344Z,54.94
2019-02-25T01:47:57.803Z,55.28
2019-02-25T01:50:28.322Z,55.17
2019-02-25T01:52:58.775Z,55.36
2019-02-25T01:55:29.237Z,55.39
2019-02-25T01:57:59.736Z,55.75
2019-02-25T02:00:30.299Z,56.53
2019-02-25T02:03:00.764Z,56.29
2019-02-25T02:05:31.306Z,57.26
2019-02-25T02:08:01.808Z,58.20
2019-02-25T02:10:32.262Z,57.93
2019-02-25T02:13:02.776Z,58.53
2019-02-25T02:15:33.220Z,59.74
2019-02-25T02:18:03.681Z,59.30
2019-02-25T02:20:34.187Z,59.44
2019-02-25T02:23:04.666Z,59.68
2019-02-25T02:25:35.165Z,59.91
2019-02-25T02:28:05.826Z,59.53
2019-02-25T02:30:36.381Z,59.03
2019-02-25T02:33:06.938Z,59.02
2019-02-25T02:35:37.411Z,58.69
2019-02-25T02:38:07.925Z,59.75
2019-02-25T02:40:38.446Z,59.27
2019-02-25T02:43:08.957Z,60.23
2019-02-25T02:45:51.843Z,59.34
2019-02-25T02:48:26.668Z,59.22
2019-02-25T02:50:57.121Z,58.40
2019-02-25T02:53:27.616Z,57.98
2019-02-25T02:55:58.059Z,57.46
2019-02-25T02:58:28.567Z,57.59
2019-02-25T03:00:59.025Z,57.41
2019-02-25T03:03:29.488Z,57.14
2019-02-25T03:05:59.986Z,56.61
2019-02-25T03:08:30.444Z,56.42
2019-02-25T03:11:00.951Z,57.37
2019-02-25T03:13:31.434Z,57.28
2019-02-25T03:16:02.034Z,56.85
2019-02-25T03:18:32.493Z,56.88
2019-02-25T03:21:02.995Z,56.23
2019-02-25T03:23:33.445Z,56.61
2019-02-25T03:26:03.948Z,56.71
2019-02-25T03:28:34.429Z,56.29
2019-02-25T03:31:05.095Z,56.00
2019-02-25T03:33:35.600Z,56.36
2019-02-25T03:36:06.097Z,56.73
2019-02-25T03:38:36.603Z,56.45
2019-02-25T03:41:07.118Z,56.47
2019-02-25T03:43:37.619Z,56.36
2019-02-25T03:46:08.107Z,56.26
2019-02-25T03:48:38.578Z,56.04
2019-02-25T03:51:09.083Z,55.78
2019-02-25T03:53:39.560Z,55.85
2019-02-25T03:56:10.101Z,55.98
2019-02-25T03:58:40.661Z,56.37
2019-02-25T04:01:11.395Z,56.24
2019-02-25T04:03:41.871Z,56.71
2019-02-25T04:06:12.826Z,55.83
2019-02-25T04:08:43.548Z,55.51
2019-02-25T04:11:14.066Z,55.23
2019-02-25T04:13:44.588Z,55.22
2019-02-25T04:16:15.064Z,55.24
2019-02-25T04:18:45.566Z,55.31
2019-02-25T04:21:16.037Z,55.37
2019-02-25T04:23:46.523Z,55.04
2019-02-25T04:26:17.010Z,55.22
2019-02-25T04:28:47.513Z,55.06
2019-02-25T04:31:17.972Z,55.36
2019-02-25T04:33:48.487Z,55.60
2019-02-25T04:36:19.009Z,55.27
2019-02-25T04:38:49.487Z,55.34
2019-02-25T04:41:19.997Z,55.92
2019-02-25T04:43:50.471Z,56.27
2019-02-25T04:46:20.993Z,56.11
2019-02-25T04:48:51.470Z,55.72
2019-02-25T04:51:21.971Z,56.24
2019-02-25T04:53:52.442Z,56.10
2019-02-25T04:56:25.262Z,55.93
2019-02-25T04:58:55.148Z,55.98
2019-02-25T05:01:25.619Z,56.10
2019-02-25T05:03:56.140Z,55.71
2019-02-25T05:06:26.687Z,55.69
2019-02-25T05:08:57.147Z,55.29
2019-02-25T05:11:31.811Z,55.15
2019-02-25T05:14:02.276Z,55.56
2019-02-25T05:16:32.832Z,55.96
2019-02-25T05:19:03.309Z,55.88
2019-02-25T05:21:33.782Z,56.38
2019-02-25T05:24:04.289Z,56.19
2019-02-25T05:26:34.786Z,56.83
2019-02-25T05:29:05.299Z,56.86
2019-02-25T05:31:35.766Z,56.71
2019-02-25T05:34:06.271Z,56.32
2019-02-25T05:36:36.745Z,55.69
2019-02-25T05:39:09.541Z,55.43
2019-02-25T05:41:39.995Z,55.00
2019-02-25T05:44:10.508Z,55.30
2019-02-25T05:46:41.058Z,55.92
2019-02-25T05:49:11.562Z,56.07
2019-02-25T05:51:42.078Z,55.83
2019-02-25T05:54:12.571Z,56.20
2019-02-25T05:56:43.810Z,56.65
2019-02-25T05:59:14.428Z,56.13
2019-02-25T06:01:44.910Z,56.32
2019-02-25T06:04:15.459Z,55.83
2019-02-25T06:06:45.980Z,56.20
2019-02-25T06:09:18.328Z,56.08
2019-02-25T06:11:49.062Z,55.63
2019-02-25T06:14:20.849Z,55.84
2019-02-25T06:16:51.459Z,54.82
2019-02-25T06:19:22.015Z,53.65
2019-02-25T06:21:52.970Z,53.10
2019-02-25T06:24:23.649Z,53.13
2019-02-25T06:26:54.666Z,52.82
2019-02-25T06:29:25.625Z,52.36
2019-02-25T06:31:56.211Z,52.17
2019-02-25T06:34:27.562Z,51.42
2019-02-25T06:36:58.081Z,51.13
2019-02-25T06:39:28.748Z,51.77
2019-02-25T06:41:59.255Z,51.83
2019-02-25T06:44:29.779Z,52.20
2019-02-25T06:47:00.315Z,51.89
2019-02-25T06:49:30.868Z,51.61
2019-02-25T06:52:01.411Z,51.11
2019-02-25T06:54:31.998Z,50.14
2019-02-25T06:57:02.465Z,50.03
2019-02-25T06:59:33.123Z,49.35
2019-02-25T07:02:03.612Z,48.92
2019-02-25T07:04:54.720Z,49.40
2019-02-25T07:07:46.789Z,49.40
2019-02-25T07:10:34.558Z,49.90
2019-02-25T07:13:33.176Z,49.49
2019-02-25T07:16:16.594Z,47.84
2019-02-25T07:19:05.932Z,47.97
2019-02-25T07:21:48.485Z,47.61
2019-02-25T07:24:38.277Z,47.61
2019-02-25T07:27:19.569Z,47.62
2019-02-25T07:30:08.895Z,46.73
2019-02-25T07:33:13.373Z,45.58
2019-02-25T07:35:53.875Z,45.43
2019-02-25T07:38:43.237Z,45.43
2019-02-25T07:41:33.119Z,46.06
2019-02-25T07:44:16.790Z,46.06
2019-02-25T07:47:15.373Z,46.13
2019-02-25T07:50:07.570Z,46.78
2019-02-25T07:52:59.998Z,47.20
2019-02-25T07:56:02.262Z,45.96
2019-02-25T07:58:45.197Z,45.65
2019-02-25T08:01:29.737Z,45.65
2019-02-25T08:04:27.346Z,45.59
2019-02-25T08:07:19.720Z,46.04
2019-02-25T08:10:18.196Z,46.04
2019-02-25T08:13:07.516Z,46.08
2019-02-25T08:15:47.767Z,46.08
2019-02-25T08:18:26.806Z,46.59
2019-02-25T08:21:17.028Z,46.59
2019-02-25T08:23:55.413Z,45.96
2019-02-25T08:26:43.283Z,45.96
2019-02-25T08:29:32.641Z,45.62
2019-02-25T08:32:25.096Z,45.62
2019-02-25T08:35:29.755Z,45.24
2019-02-25T08:38:24.965Z,45.35
2019-02-25T08:41:20.670Z,45.81
2019-02-25T08:44:04.205Z,45.81
2019-02-25T08:46:53.566Z,45.41
2019-02-25T08:49:36.556Z,45.41
2019-02-25T08:52:07.170Z,44.97
2019-02-25T08:54:37.787Z,43.95
2019-02-25T08:57:08.342Z,44.59
2019-02-25T08:59:39.029Z,44.54
2019-02-25T09:02:09.768Z,43.99
2019-02-25T09:04:42.999Z,43.79
2019-02-25T09:07:13.474Z,43.05
2019-02-25T09:09:44.101Z,43.09
2019-02-25T09:12:14.677Z,43.71
2019-02-25T09:14:45.175Z,42.42
2019-02-25T09:17:16.182Z,42.86
2019-02-25T09:19:46.681Z,42.39
2019-02-25T09:22:17.423Z,42.63
2019-02-25T09:24:48.028Z,42.49
2019-02-25T09:27:18.488Z,43.48
2019-02-25T09:29:49.006Z,43.48
2019-02-25T09:32:19.515Z,43.47
2019-02-25T09:34:50.033Z,43.04
2019-02-25T09:37:20.643Z,43.04
2019-02-25T09:39:52.002Z,42.22
2019-02-25T09:42:22.644Z,42.22
2019-02-25T09:44:53.204Z,42.71
2019-02-25T09:47:23.843Z,42.40
2019-02-25T09:49:54.317Z,41.49
2019-02-25T09:52:27.631Z,41.87
2019-02-25T09:54:58.166Z,42.57
2019-02-25T09:57:28.643Z,41.76
2019-02-25T09:59:59.205Z,42.50
2019-02-25T10:02:29.744Z,40.65
2019-02-25T10:05:00.295Z,40.76
2019-02-25T10:07:30.734Z,41.95
2019-02-25T10:10:01.255Z,42.29
2019-02-25T10:12:31.779Z,41.95
2019-02-25T10:15:02.263Z,41.95
2019-02-25T10:17:32.785Z,41.64
2019-02-25T10:20:03.291Z,41.33
2019-02-25T10:22:33.780Z,40.34
2019-02-25T10:25:04.631Z,40.33
2019-02-25T10:27:35.141Z,40.46
2019-02-25T10:30:06.505Z,40.80
2019-02-25T10:32:37.061Z,38.94
2019-02-25T10:35:09.544Z,38.94
2019-02-25T10:37:41.375Z,39.94
2019-02-25T10:40:15.223Z,39.94
2019-02-25T10:42:45.800Z,39.97
2019-02-25T10:45:17.078Z,39.97
2019-02-25T10:47:49.501Z,40.05
2019-02-25T10:50:20.138Z,41.18
2019-02-25T10:52:50.751Z,41.18
2019-02-25T10:55:28.162Z,39.94
2019-02-25T10:57:59.793Z,40.57
2019-02-25T11:00:30.946Z,39.94
2019-02-25T11:03:02.145Z,39.94
2019-02-25T11:05:32.822Z,40.01
2019-02-25T11:08:05.832Z,40.01
2019-02-25T11:10:44.109Z,40.06
2019-02-25T11:13:15.484Z,40.03
2019-02-25T11:15:48.152Z,40.33
2019-02-25T11:18:20.285Z,40.85
2019-02-25T11:20:50.422Z,41.25
2019-02-25T11:23:21.622Z,41.25
2019-02-25T11:25:53.706Z,41.83
2019-02-25T11:28:26.038Z,40.54
2019-02-25T11:30:56.744Z,40.60
2019-02-25T11:33:29.638Z,41.40
2019-02-25T11:35:59.562Z,41.93
2019-02-25T11:38:31.276Z,40.43
2019-02-25T11:41:04.178Z,41.32
2019-02-25T11:43:34.450Z,39.67
2019-02-25T11:46:05.027Z,40.14
2019-02-25T11:48:35.553Z,37.98
2019-02-25T11:51:06.070Z,38.56
2019-02-25T11:53:36.690Z,38.37
2019-02-25T11:56:07.310Z,39.52
2019-02-25T11:58:37.910Z,39.38
2019-02-25T12:01:08.415Z,39.39
2019-02-25T12:03:39.056Z,39.77
2019-02-25T12:06:09.566Z,38.52
2019-02-25T12:08:40.060Z,39.43
2019-02-25T12:11:10.526Z,39.10
2019-02-25T12:13:41.064Z,39.07
2019-02-25T12:16:11.588Z,39.55
2019-02-25T12:18:42.063Z,38.76
2019-02-25T12:21:12.608Z,38.48
2019-02-25T12:23:43.222Z,36.92
2019-02-25T12:26:13.714Z,37.98
2019-02-25T12:28:44.237Z,38.95
2019-02-25T12:31:15.007Z,38.55
2019-02-25T12:33:45.529Z,38.51
2019-02-25T12:36:16.071Z,38.44
2019-02-25T12:38:46.541Z,37.26
2019-02-25T12:41:17.079Z,37.87
2019-02-25T12:43:47.611Z,37.29
2019-02-25T12:46:18.203Z,35.39
2019-02-25T12:48:48.677Z,34.48
2019-02-25T12:51:19.299Z,35.35
2019-02-25T12:53:49.834Z,35.47
2019-02-25T12:56:20.391Z,34.42
2019-02-25T12:58:50.885Z,34.10
2019-02-25T13:01:21.426Z,33.03
2019-02-25T13:03:51.946Z,34.05
2019-02-25T13:06:22.417Z,35.61
2019-02-25T13:08:52.992Z,36.72
2019-02-25T13:11:24.468Z,36.89
2019-02-25T13:13:55.058Z,37.11
2019-02-25T13:16:25.541Z,37.39
2019-02-25T13:18:56.012Z,37.88
2019-02-25T13:21:26.539Z,37.35
2019-02-25T13:23:59.309Z,37.35
2019-02-25T13:26:31.572Z,37.12
2019-02-25T13:29:01.461Z,37.36
2019-02-25T13:31:31.949Z,37.80
2019-02-25T13:34:02.567Z,39.30
2019-02-25T13:36:33.085Z,38.80
2019-02-25T13:39:03.937Z,38.80
2019-02-25T13:41:34.445Z,38.48
2019-02-25T13:44:05.246Z,37.68
2019-02-25T13:46:35.708Z,38.36
2019-02-25T13:49:06.250Z,37.07
2019-02-25T13:51:36.722Z,36.88
2019-02-25T13:54:07.223Z,36.88
2019-02-25T13:56:37.725Z,36.92
2019-02-25T13:59:08.219Z,37.22
2019-02-25T14:01:38.708Z,38.20
2019-02-25T14:04:12.340Z,36.82
2019-02-25T14:06:42.889Z,37.76
2019-02-25T14:09:13.389Z,36.93
2019-02-25T14:11:43.919Z,37.85
2019-02-25T14:14:14.906Z,37.68
2019-02-25T14:16:45.518Z,38.19
2019-02-25T14:19:16.001Z,38.37
2019-02-25T14:21:46.675Z,39.11
2019-02-25T14:24:18.511Z,39.77
2019-02-25T14:26:54.491Z,38.77
2019-02-25T14:29:26.450Z,38.56
2019-02-25T14:31:57.142Z,39.18
2019-02-25T14:34:27.792Z,38.88
2019-02-25T14:36:59.743Z,38.91
2019-02-25T14:39:32.723Z,38.79
2019-02-25T14:42:06.871Z,39.45
2019-02-25T14:44:41.167Z,39.62
2019-02-25T14:47:20.555Z,39.33
2019-02-25T14:49:50.100Z,39.51
2019-02-25T14:52:21.813Z,39.94
2019-02-25T14:54:52.946Z,38.99
2019-02-25T14:57:24.811Z,40.48
2019-02-25T14:59:55.786Z,40.33
2019-02-25T15:02:26.288Z,40.33
2019-02-25T15:04:56.886Z,40.54
2019-02-25T15:07:27.525Z,40.36
2019-02-25T15:09:59.974Z,39.73
2019-02-25T15:12:32.084Z,40.73
2019-02-25T15:15:04.699Z,40.62
2019-02-25T15:17:35.017Z,40.43
2019-02-25T15:20:06.079Z,40.43
2019-02-25T15:22:36.819Z,40.31
2019-02-25T15:25:10.125Z,40.52
2019-02-25T15:27:40.761Z,39.63
2019-02-25T15:30:16.684Z,39.97
2019-02-25T15:32:55.672Z,39.95
2019-02-25T15:35:19.407Z,39.95
2019-02-25T15:37:50.735Z,39.28
2019-02-25T15:40:25.534Z,39.28
2019-02-25T15:43:04.885Z,40.23
2019-02-25T15:45:38.334Z,38.76
2019-02-25T15:48:18.291Z,38.78
2019-02-25T15:50:52.950Z,39.80
2019-02-25T15:53:23.651Z,39.80
2019-02-25T15:55:56.923Z,39.38
2019-02-25T15:58:26.422Z,39.72
2019-02-25T16:00:57.020Z,39.98
2019-02-25T16:03:27.847Z,39.84
2019-02-25T16:06:01.667Z,40.13
2019-02-25T16:08:31.131Z,40.13
2019-02-25T16:11:03.083Z,41.00
2019-02-25T16:13:33.908Z,41.72
2019-02-25T16:16:06.059Z,41.46
2019-02-25T16:18:36.619Z,41.53
2019-02-25T16:21:07.500Z,41.58
2019-02-25T16:23:40.703Z,41.31
2019-02-25T16:26:11.178Z,41.31
2019-02-25T16:28:42.689Z,41.16
2019-02-25T16:31:14.791Z,41.48
2019-02-25T16:33:46.972Z,41.17
2019-02-25T16:36:17.722Z,41.53
2019-02-25T16:38:51.263Z,41.36
2019-02-25T16:41:27.083Z,41.36
2019-02-25T16:43:52.571Z,41.26
2019-02-25T16:46:23.927Z,40.59
2019-02-25T16:48:55.146Z,41.11
2019-02-25T16:51:28.115Z,40.97
2019-02-25T16:53:59.050Z,41.24
2019-02-25T16:56:29.953Z,41.09
2019-02-25T16:59:11.107Z,41.68
2019-02-25T17:01:41.723Z,41.30
2019-02-25T17:04:15.912Z,41.50
2019-02-25T17:06:44.596Z,41.50
2019-02-25T17:09:20.445Z,41.22
2019-02-25T17:11:51.053Z,41.22
2019-02-25T17:14:23.402Z,41.40
2019-02-25T17:16:56.615Z,41.29
2019-02-25T17:19:26.097Z,42.13
2019-02-25T17:21:56.641Z,42.13
2019-02-25T17:24:28.130Z,41.12
2019-02-25T17:27:00.051Z,41.08
2019-02-25T17:29:33.576Z,41.18
2019-02-25T17:32:04.509Z,40.84
2019-02-25T17:34:36.716Z,41.11
2019-02-25T17:37:08.581Z,40.91
2019-02-25T17:39:39.860Z,40.89
2019-02-25T17:42:10.838Z,41.10
2019-02-25T17:44:41.737Z,41.13
2019-02-25T17:47:13.303Z,40.97
2019-02-25T17:49:44.789Z,40.37
2019-02-25T17:52:16.817Z,40.53
2019-02-25T17:54:48.738Z,40.77
2019-02-25T17:57:20.136Z,40.60
2019-02-25T17:59:52.729Z,40.29
2019-02-25T18:02:23.777Z,40.97
2019-02-25T18:04:55.318Z,40.84
2019-02-25T18:07:27.594Z,41.73
2019-02-25T18:09:59.033Z,41.61
2019-02-25T18:12:31.872Z,42.51
2019-02-25T18:15:03.583Z,42.14
2019-02-25T18:17:36.312Z,43.12
2019-02-25T18:20:08.610Z,43.05
2019-02-25T18:22:39.464Z,43.81
2019-02-25T18:25:10.304Z,44.14
2019-02-25T18:27:41.520Z,44.97
2019-02-25T18:30:13.992Z,44.61
2019-02-25T18:32:45.155Z,44.79
2019-02-25T18:35:16.815Z,45.21
2019-02-25T18:37:48.532Z,44.96
2019-02-25T18:40:20.679Z,45.87
2019-02-25T18:42:51.462Z,46.24
2019-02-25T18:45:22.288Z,46.99
2019-02-25T18:47:53.148Z,47.61
2019-02-25T18:50:24.712Z,48.00
2019-02-25T18:52:57.193Z,48.39
2019-02-25T18:55:29.379Z,48.49
2019-02-25T18:58:00.882Z,48.60
2019-02-25T19:00:37.042Z,48.42
2019-02-25T19:03:07.942Z,48.25
2019-02-25T19:05:38.637Z,48.55
2019-02-25T19:08:17.186Z,48.10
2019-02-25T19:10:50.332Z,47.84
2019-02-25T19:13:22.720Z,48.67
2019-02-25T19:15:54.811Z,48.24
2019-02-25T19:18:25.244Z,47.71
2019-02-25T19:20:55.727Z,47.96
2019-02-25T19:23:26.376Z,47.61
2019-02-25T19:25:56.886Z,47.83
2019-02-25T19:28:28.057Z,47.56
2019-02-25T19:30:59.794Z,46.85
2019-02-25T19:33:31.295Z,46.93
2019-02-25T19:36:03.315Z,46.86
2019-02-25T19:38:36.180Z,46.62
2019-02-25T19:41:06.380Z,47.07
2019-02-25T19:43:36.884Z,47.07
2019-02-25T19:46:08.706Z,46.84
2019-02-25T19:48:40.288Z,46.84
2019-02-25T19:51:12.569Z,47.60
2019-02-25T19:53:44.814Z,47.53
2019-02-25T19:56:15.442Z,48.14
2019-02-25T19:58:45.913Z,48.19
2019-02-25T20:01:16.439Z,48.00
2019-02-25T20:03:47.740Z,49.16
2019-02-25T20:06:19.189Z,49.16
2019-02-25T20:08:51.127Z,48.50
2019-02-25T20:11:22.689Z,48.07
2019-02-25T20:13:53.144Z,47.64
2019-02-25T20:16:27.114Z,47.44
2019-02-25T20:18:56.380Z,46.90
2019-02-25T20:21:29.334Z,47.43
2019-02-25T20:24:00.197Z,47.17
2019-02-25T20:26:32.552Z,47.30
2019-02-25T20:29:04.146Z,47.69
2019-02-25T20:31:35.601Z,47.59
2019-02-25T20:34:06.230Z,47.72
2019-02-25T20:36:36.829Z,47.39
2019-02-25T20:39:07.610Z,47.53
2019-02-25T20:41:38.111Z,47.78
2019-02-25T20:44:09.906Z,47.77
2019-02-25T20:46:40.397Z,47.80
2019-02-25T20:49:14.232Z,47.79
2019-02-25T20:51:43.562Z,47.84
2019-02-25T20:54:17.786Z,47.96
2019-02-25T20:56:46.812Z,48.63
2019-02-25T20:59:18.496Z,48.69
2019-02-25T21:01:50.683Z,48.63
2019-02-25T21:04:22.271Z,49.27
2019-02-25T21:06:52.894Z,48.71
2019-02-25T21:09:23.538Z,49.00
2019-02-25T21:11:54.037Z,49.19
2019-02-25T21:14:24.536Z,49.74
2019-02-25T21:16:56.392Z,49.25
2019-02-25T21:19:27.214Z,49.96
2019-02-25T21:21:59.784Z,49.79
2019-02-25T21:24:31.141Z,49.90
2019-02-25T21:27:03.763Z,50.29
2019-02-25T21:29:36.527Z,50.45
2019-02-25T21:32:06.561Z,50.86
2019-02-25T21:34:37.028Z,51.09
2019-02-25T21:37:07.548Z,51.13
2019-02-25T21:39:38.660Z,51.47
2019-02-25T21:42:12.662Z,51.50
2019-02-25T21:44:46.171Z,51.70
2019-02-25T21:47:14.612Z,51.73
2019-02-25T21:49:45.063Z,52.29
2019-02-25T21:52:17.481Z,52.24
2019-02-25T21:54:47.744Z,52.46
2019-02-25T21:57:18.251Z,51.74
2019-02-25T21:59:48.748Z,52.46
2019-02-25T22:02:19.206Z,52.46
2019-02-25T22:04:51.475Z,52.47
2019-02-25T22:07:26.267Z,52.20
2019-02-25T22:09:54.055Z,52.20
2019-02-25T22:12:24.562Z,52.67
2019-02-25T22:14:55.075Z,52.06
2019-02-25T22:17:25.607Z,52.30
2019-02-25T22:19:56.057Z,52.40
2019-02-25T22:22:28.828Z,52.02
2019-02-25T22:25:04.057Z,52.06
2019-02-25T22:27:30.897Z,51.90
2019-02-25T22:30:04.221Z,52.27
2019-02-25T22:32:36.019Z,53.20
2019-02-25T22:35:07.565Z,52.94
2019-02-25T22:37:38.686Z,52.66
2019-02-25T22:40:12.293Z,52.66
2019-02-25T22:42:42.442Z,52.72
2019-02-25T22:45:16.266Z,53.34
2019-02-25T22:47:46.736Z,53.34
2019-02-25T22:50:17.293Z,52.82
2019-02-25T22:52:51.286Z,52.60
2019-02-25T22:55:20.771Z,52.33
2019-02-25T22:57:54.143Z,52.43
2019-02-25T23:00:42.185Z,52.27
2019-02-25T23:03:15.356Z,52.93
2019-02-25T23:05:47.973Z,52.68
2019-02-25T23:08:20.691Z,52.55
2019-02-25T23:10:51.661Z,53.24
2019-02-25T23:13:23.105Z,52.67
2019-02-25T23:15:54.764Z,52.82
2019-02-25T23:18:27.960Z,54.07
2019-02-25T23:21:00.114Z,54.35
2019-02-25T23:23:30.576Z,54.50
2019-02-25T23:26:01.654Z,54.78
2019-02-25T23:28:32.126Z,54.98
2019-02-25T23:31:02.725Z,54.73
2019-02-25T23:33:33.204Z,54.54
2019-02-25T23:36:03.679Z,54.38
2019-02-25T23:38:34.197Z,55.20
2019-02-25T23:41:05.415Z,55.20
2019-02-25T23:43:38.593Z,56.00
2019-02-25T23:46:09.067Z,55.89
2019-02-25T23:48:41.790Z,55.60
2019-02-25T23:51:12.445Z,55.67
2019-02-25T23:53:43.894Z,55.42
2019-02-25T23:56:18.210Z,54.71
2019-02-25T23:58:47.254Z,53.97
